Time;durP1;ratioP1;P1;durP2;ratioP2;P2;SDS_P1;SDS_P2;PMS_P1;PMS_P2;Temp;Humidity;BMP_temperature;BMP_pressure;BME280_temperature;BME280_humidity;BME280_pressure;Samples;Min_cycle;Max_cycle;Signal;HPM_P1;HPM_P2
2022/01/20 00:00:00;;;;;;;;;;;3.50;99.90;4.10;100797.00;;;;346253;28;83587;-94
2022/01/20 00:00:20;;;;;;;;;;;3.50;99.90;4.10;100800.00;;;;344856;28;91071;-93
2022/01/20 00:00:52;;;;;;;;;;;3.50;99.90;4.10;100794.00;;;;346682;28;82457;-93
2022/01/20 00:01:36;;;;;;;;;;;3.50;99.90;4.20;100796.00;;;;344128;28;90069;-94
2022/01/20 00:01:50;;;;;;;;;;;3.50;99.90;4.20;100788.00;;;;346585;28;82553;-94
2022/01/20 00:02:05;;;;;;;;;;;3.60;99.90;4.30;100775.00;;;;347598;28;91594;-94
2022/01/20 00:02:17;;;;;;;;;;;3.50;99.90;4.30;100779.00;;;;345179;28;83386;-94
2022/01/20 00:02:34;;;;;;;;;;;3.60;99.90;4.30;100777.00;;;;346167;28;89784;-93
2022/01/20 00:02:58;;;;;;;;;;;3.60;99.90;4.40;100782.00;;;;346990;28;82670;-94
2022/01/20 00:03:15;;;;;;;;;;;3.50;99.90;4.20;100787.00;;;;346059;28;89052;-94
2022/01/20 00:03:32;;;;;;;;;;;3.60;99.90;4.30;100779.00;;;;348987;27;83364;-94
2022/01/20 00:03:44;;;;;;;;;;;3.60;99.90;4.20;100771.00;;;;346964;27;90244;-93
2022/01/20 00:03:59;;;;;;;;;;;3.60;99.90;4.20;100780.00;;;;349046;27;82464;-93
2022/01/20 00:04:23;;;;;;;;;;;3.60;99.90;4.40;100777.00;;;;347133;28;91105;-93
2022/01/20 00:04:48;;;;;;;;;;;3.60;99.90;4.10;100782.00;;;;348751;27;83311;-93
2022/01/20 00:05:30;;;;;;;;;;;3.60;99.90;4.20;100770.00;;;;343360;28;90769;-93
2022/01/20 00:06:32;;;;;;;;;;;3.70;99.90;4.20;100778.00;;;;346445;28;82450;-93
2022/01/20 00:08:29;;;;;;;;;;;3.60;99.90;4.00;100776.00;;;;340061;28;89494;-94
2022/01/20 00:25:54;;;;;;;;;;;3.40;99.90;4.00;100789.00;;;;333641;29;83335;-94
2022/01/20 00:26:13;;;;;;;;;;;3.40;99.90;4.10;100795.00;;;;333347;29;91594;-94
2022/01/20 00:26:28;;;;;;;;;;;3.40;99.90;4.00;100797.00;;;;332571;29;83378;-93
2022/01/20 00:26:46;;;;;;;;;;;3.40;99.90;4.00;100792.00;;;;335212;28;91582;-93
2022/01/20 00:27:04;;;;;;;;;;;3.40;99.90;3.90;100794.00;;;;333320;29;82577;-95
2022/01/20 00:27:18;;;;;;;;;;;3.40;99.90;4.00;100795.00;;;;333547;29;91133;-93
2022/01/20 00:27:33;;;;;;;;;;;3.40;99.90;4.00;100784.00;;;;339348;28;82520;-94
2022/01/20 00:28:03;;;;;;;;;;;3.40;99.90;3.90;100795.00;;;;338893;28;90119;-94
2022/01/20 00:28:18;;;;;;;;;;;3.40;99.90;3.90;100790.00;;;;332725;29;83543;-93
2022/01/20 00:28:49;;;;;;;;;;;3.40;99.90;4.00;100792.00;;;;337914;28;90146;-94
2022/01/20 00:29:01;;;;;;;;;;;3.40;99.90;3.90;100797.00;;;;339346;28;82443;-94
2022/01/20 00:29:21;;;;;;;;;;;3.40;99.90;3.90;100791.00;;;;332626;28;89535;-93
2022/01/20 00:29:56;;;;;;;;;;;3.40;99.90;3.90;100792.00;;;;336866;28;82402;-93
2022/01/20 00:31:07;;;;;;;;;;;3.40;99.90;3.80;100797.00;;;;334217;29;82520;-92
2022/01/20 00:32:02;;;;;;;;;;;3.30;99.90;3.80;100800.00;;;;339549;28;83452;-93
2022/01/20 00:32:17;;;;;;;;;;;3.40;99.90;3.80;100793.00;;;;337780;28;91720;-94
2022/01/20 00:33:20;;;;;;;;;;;3.30;99.90;3.80;100790.00;;;;340124;28;90622;-94
2022/01/20 00:33:41;;;;;;;;;;;3.30;99.90;3.80;100797.00;;;;343851;28;82613;-94
2022/01/20 00:34:09;;;;;;;;;;;3.30;99.90;3.80;100792.00;;;;335146;29;91632;-94
2022/01/20 00:34:31;;;;;;;;;;;3.30;99.90;3.80;100792.00;;;;332629;29;83974;-94
2022/01/20 00:35:27;;;;;;;;;;;3.30;99.90;3.90;100794.00;;;;330886;29;90548;-94
2022/01/20 00:37:19;;;;;;;;;;;3.30;99.90;3.90;100801.00;;;;347314;28;82437;-93
2022/01/20 00:37:31;;;;;;;;;;;3.30;99.90;3.90;100801.00;;;;345914;28;82413;-93
2022/01/20 00:37:45;;;;;;;;;;;3.30;99.90;3.90;100798.00;;;;346959;28;85131;-93
2022/01/20 00:37:58;;;;;;;;;;;3.30;99.90;4.00;100802.00;;;;347274;28;83307;-94
2022/01/20 00:38:10;;;;;;;;;;;3.40;99.90;4.00;100795.00;;;;345900;28;85172;-94
2022/01/20 00:38:22;;;;;;;;;;;3.30;99.90;3.90;100802.00;;;;345360;28;83537;-94
2022/01/20 00:38:35;;;;;;;;;;;3.30;99.90;3.90;100798.00;;;;344999;28;82426;-94
2022/01/20 00:38:47;;;;;;;;;;;3.40;99.90;4.00;100797.00;;;;345326;28;82680;-94
2022/01/20 00:38:59;;;;;;;;;;;3.40;99.90;3.90;100792.00;;;;344388;28;83958;-94
2022/01/20 00:39:10;;;;;;;;;;;3.40;99.90;3.90;100800.00;;;;345844;28;82261;-94
2022/01/20 00:39:22;;;;;;;;;;;3.40;99.90;3.90;100798.00;;;;345605;28;86544;-93
2022/01/20 00:39:34;;;;;;;;;;;3.30;99.90;3.90;100799.00;;;;342884;28;83384;-95
2022/01/20 00:39:47;;;;;;;;;;;3.40;99.90;3.90;100799.00;;;;344163;28;85547;-94
2022/01/20 00:39:59;;;;;;;;;;;3.40;99.90;3.90;100797.00;;;;344505;28;82521;-94
2022/01/20 00:40:11;;;;;;;;;;;3.30;99.90;3.90;100797.00;;;;343115;28;87284;-94
2022/01/20 00:40:24;;;;;;;;;;;3.40;99.90;3.90;100795.00;;;;345695;28;82591;-94
2022/01/20 00:40:35;;;;;;;;;;;3.40;99.90;3.90;100797.00;;;;343108;28;87650;-94
2022/01/20 00:40:47;;;;;;;;;;;3.30;99.90;4.10;100792.00;;;;343093;28;83326;-94
2022/01/20 00:40:59;;;;;;;;;;;3.40;99.90;4.10;100795.00;;;;347139;28;87593;-94
2022/01/20 00:41:15;;;;;;;;;;;3.40;99.90;4.10;100797.00;;;;343673;28;82486;-94
2022/01/20 00:41:27;;;;;;;;;;;3.40;99.90;4.00;100797.00;;;;344343;28;87712;-94
2022/01/20 00:41:38;;;;;;;;;;;3.40;99.90;4.00;100790.00;;;;342978;28;83259;-94
2022/01/20 00:41:50;;;;;;;;;;;3.40;99.90;4.00;100793.00;;;;342571;28;86518;-94
2022/01/20 00:42:02;;;;;;;;;;;3.40;99.90;4.00;100789.00;;;;342886;28;83470;-94
2022/01/20 00:42:15;;;;;;;;;;;3.40;99.90;4.00;100797.00;;;;344182;28;86797;-94
2022/01/20 00:42:27;;;;;;;;;;;3.40;99.90;4.00;100795.00;;;;342929;28;83554;-94
2022/01/20 00:42:38;;;;;;;;;;;3.40;99.90;4.00;100790.00;;;;344439;28;87617;-94
2022/01/20 00:42:50;;;;;;;;;;;3.40;99.90;4.00;100784.00;;;;344481;28;83262;-93
2022/01/20 00:43:02;;;;;;;;;;;3.40;99.90;4.00;100793.00;;;;343030;28;85829;-94
2022/01/20 00:43:14;;;;;;;;;;;3.40;99.90;4.00;100788.00;;;;345916;28;82383;-93
2022/01/20 00:43:26;;;;;;;;;;;3.40;99.90;4.00;100793.00;;;;344356;28;86534;-94
2022/01/20 00:43:38;;;;;;;;;;;3.40;99.90;4.00;100791.00;;;;344483;28;83388;-94
2022/01/20 00:43:49;;;;;;;;;;;3.40;99.90;4.00;100792.00;;;;345003;28;86751;-94
2022/01/20 00:44:01;;;;;;;;;;;3.40;99.90;4.00;100790.00;;;;341819;28;82230;-94
2022/01/20 00:44:13;;;;;;;;;;;3.40;99.90;4.00;100793.00;;;;345814;28;86616;-94
2022/01/20 00:44:25;;;;;;;;;;;3.40;99.90;3.90;100794.00;;;;343089;28;82548;-94
2022/01/20 00:44:37;;;;;;;;;;;3.40;99.90;3.90;100797.00;;;;342839;28;86532;-94
2022/01/20 00:44:49;;;;;;;;;;;3.40;99.90;4.00;100792.00;;;;344862;28;82599;-93
2022/01/20 00:45:02;;;;;;;;;;;3.40;99.90;4.00;100795.00;;;;345570;28;86292;-93
2022/01/20 00:45:15;;;;;;;;;;;3.40;99.90;4.10;100800.00;;;;345444;28;83540;-94
2022/01/20 00:45:26;;;;;;;;;;;3.40;99.90;4.00;100791.00;;;;341659;28;86197;-94
2022/01/20 00:45:38;;;;;;;;;;;3.40;99.90;4.00;100783.00;;;;344272;28;84075;-93
2022/01/20 00:45:50;;;;;;;;;;;3.40;99.90;4.00;100786.00;;;;344406;28;87839;-94
2022/01/20 00:46:04;;;;;;;;;;;3.40;99.90;4.00;100787.00;;;;345789;28;83315;-94
2022/01/20 00:46:16;;;;;;;;;;;3.40;99.90;4.00;100787.00;;;;343130;28;86405;-94
2022/01/20 00:46:28;;;;;;;;;;;3.40;99.90;4.00;100791.00;;;;345836;28;83450;-94
2022/01/20 00:46:39;;;;;;;;;;;3.40;99.90;4.00;100792.00;;;;344490;28;85600;-94
2022/01/20 00:46:51;;;;;;;;;;;3.40;99.90;4.00;100790.00;;;;344470;28;82470;-93
2022/01/20 00:47:04;;;;;;;;;;;3.40;99.90;4.00;100791.00;;;;342987;28;87803;-94
2022/01/20 00:47:16;;;;;;;;;;;3.40;99.90;4.00;100795.00;;;;341776;28;82583;-93
2022/01/20 00:47:28;;;;;;;;;;;3.40;99.90;4.00;100786.00;;;;344439;28;86435;-93
2022/01/20 00:47:40;;;;;;;;;;;3.40;99.90;4.00;100785.00;;;;344095;28;83305;-93
2022/01/20 00:47:52;;;;;;;;;;;3.40;99.90;4.00;100792.00;;;;344101;28;86544;-94
2022/01/20 00:48:04;;;;;;;;;;;3.40;99.90;4.00;100792.00;;;;344367;28;82373;-94
2022/01/20 00:48:16;;;;;;;;;;;3.40;99.90;4.00;100792.00;;;;344098;28;86353;-94
2022/01/20 00:48:28;;;;;;;;;;;3.40;99.90;4.00;100793.00;;;;343033;28;83474;-93
2022/01/20 00:48:39;;;;;;;;;;;3.40;99.90;3.90;100793.00;;;;345873;28;86071;-94
2022/01/20 00:48:51;;;;;;;;;;;3.40;99.90;3.90;100788.00;;;;343649;28;83215;-94
2022/01/20 00:49:03;;;;;;;;;;;3.40;99.90;3.90;100792.00;;;;343032;28;86958;-94
2022/01/20 00:49:15;;;;;;;;;;;3.40;99.90;3.90;100797.00;;;;343104;28;82551;-93
2022/01/20 00:49:27;;;;;;;;;;;3.40;99.90;3.80;100790.00;;;;340411;28;86805;-94
2022/01/20 00:49:39;;;;;;;;;;;3.40;99.90;3.80;100790.00;;;;344232;28;83364;-94
2022/01/20 00:49:51;;;;;;;;;;;3.40;99.90;3.80;100787.00;;;;344339;28;87488;-94
2022/01/20 00:50:03;;;;;;;;;;;3.40;99.90;3.90;100786.00;;;;343121;28;82362;-93
2022/01/20 00:50:15;;;;;;;;;;;3.40;99.90;3.90;100793.00;;;;341723;28;86732;-94
2022/01/20 00:50:26;;;;;;;;;;;3.40;99.90;3.90;100792.00;;;;344364;28;82438;-94
2022/01/20 00:50:38;;;;;;;;;;;3.40;99.90;4.00;100785.00;;;;345853;28;85927;-94
2022/01/20 00:50:50;;;;;;;;;;;3.40;99.90;3.90;100790.00;;;;344203;28;82503;-94
2022/01/20 00:51:03;;;;;;;;;;;3.40;99.90;3.90;100794.00;;;;342749;28;86677;-93
2022/01/20 00:51:14;;;;;;;;;;;3.40;99.90;3.90;100789.00;;;;345310;28;82589;-94
2022/01/20 00:51:26;;;;;;;;;;;3.40;99.90;4.10;100794.00;;;;343148;28;86355;-93
2022/01/20 00:51:38;;;;;;;;;;;3.40;99.90;4.10;100796.00;;;;344282;28;83242;-94
2022/01/20 00:51:50;;;;;;;;;;;3.40;99.90;4.00;100787.00;;;;342976;28;87879;-94
2022/01/20 00:52:04;;;;;;;;;;;3.40;99.90;4.00;100788.00;;;;343044;28;82476;-94
2022/01/20 00:52:16;;;;;;;;;;;3.40;99.90;4.00;100787.00;;;;345512;28;86230;-93
2022/01/20 00:52:27;;;;;;;;;;;3.40;99.90;3.90;100791.00;;;;345739;28;82428;-94
2022/01/20 00:52:39;;;;;;;;;;;3.40;99.90;3.90;100784.00;;;;345857;28;86025;-94
2022/01/20 00:52:51;;;;;;;;;;;3.40;99.90;3.90;100790.00;;;;343111;28;83414;-94
2022/01/20 00:53:03;;;;;;;;;;;3.40;99.90;4.10;100793.00;;;;344354;28;87539;-94
2022/01/20 00:53:15;;;;;;;;;;;3.40;99.90;4.10;100791.00;;;;344437;28;83439;-93
2022/01/20 00:53:27;;;;;;;;;;;3.40;99.90;4.00;100786.00;;;;342959;28;87390;-94
2022/01/20 00:53:43;;;;;;;;;;;3.40;99.90;4.00;100789.00;;;;341552;28;82482;-94
2022/01/20 00:53:55;;;;;;;;;;;3.40;99.90;4.00;100786.00;;;;345665;28;85499;-94
2022/01/20 00:54:07;;;;;;;;;;;3.40;99.90;3.90;100780.00;;;;347545;28;83312;-93
2022/01/20 00:54:19;;;;;;;;;;;3.40;99.90;3.90;100782.00;;;;342965;28;87401;-93
2022/01/20 00:54:31;;;;;;;;;;;3.40;99.90;4.00;100781.00;;;;344426;28;82417;-94
2022/01/20 00:54:44;;;;;;;;;;;3.40;99.90;3.90;100789.00;;;;343405;28;86546;-94
2022/01/20 00:54:55;;;;;;;;;;;3.40;99.90;3.90;100783.00;;;;343047;28;83329;-93
2022/01/20 00:55:07;;;;;;;;;;;3.40;99.90;3.90;100783.00;;;;344346;28;86736;-94
2022/01/20 00:55:20;;;;;;;;;;;3.40;99.90;3.90;100784.00;;;;343056;28;83290;-94
2022/01/20 00:55:32;;;;;;;;;;;3.40;99.90;3.90;100783.00;;;;343036;28;86603;-94
2022/01/20 00:55:44;;;;;;;;;;;3.40;99.90;3.90;100789.00;;;;344192;28;82575;-94
2022/01/20 00:55:56;;;;;;;;;;;3.40;99.90;3.90;100785.00;;;;344183;28;85388;-94
2022/01/20 00:56:08;;;;;;;;;;;3.40;99.90;3.90;100783.00;;;;343114;28;83393;-95
2022/01/20 00:56:20;;;;;;;;;;;3.40;99.90;4.00;100785.00;;;;344303;28;86442;-93
2022/01/20 00:56:31;;;;;;;;;;;3.40;99.90;4.00;100788.00;;;;345594;28;83344;-94
2022/01/20 00:56:43;;;;;;;;;;;3.40;99.90;4.00;100777.00;;;;342573;28;86757;-94
2022/01/20 00:56:55;;;;;;;;;;;3.40;99.90;4.10;100785.00;;;;343052;28;83395;-94
2022/01/20 00:57:07;;;;;;;;;;;3.40;99.90;4.10;100782.00;;;;344038;28;84915;-94
2022/01/20 00:57:19;;;;;;;;;;;3.40;99.90;4.10;100788.00;;;;345720;28;82452;-94
2022/01/20 00:57:31;;;;;;;;;;;3.40;99.90;4.10;100786.00;;;;344393;28;85911;-94
2022/01/20 00:57:42;;;;;;;;;;;3.40;99.90;4.10;100787.00;;;;345687;28;83354;-93
2022/01/20 00:57:54;;;;;;;;;;;3.40;99.90;4.20;100783.00;;;;342986;28;86277;-94
2022/01/20 00:58:07;;;;;;;;;;;3.40;99.90;4.10;100787.00;;;;341846;28;82396;-94
2022/01/20 00:58:18;;;;;;;;;;;3.40;99.90;4.00;100788.00;;;;344232;28;85757;-94
2022/01/20 00:58:30;;;;;;;;;;;3.40;99.90;4.10;100792.00;;;;344444;28;82519;-94
2022/01/20 00:58:42;;;;;;;;;;;3.40;99.90;4.10;100779.00;;;;342986;28;85570;-94
2022/01/20 00:58:54;;;;;;;;;;;3.40;99.90;4.10;100791.00;;;;344388;28;83406;-94
2022/01/20 00:59:06;;;;;;;;;;;3.40;99.90;4.10;100790.00;;;;344389;28;87391;-93
2022/01/20 00:59:18;;;;;;;;;;;3.40;99.90;4.00;100774.00;;;;346080;28;82455;-94
2022/01/20 00:59:30;;;;;;;;;;;3.40;99.90;4.00;100787.00;;;;343015;28;86688;-94
2022/01/20 00:59:42;;;;;;;;;;;3.40;99.90;4.00;100779.00;;;;342781;28;83697;-95
2022/01/20 00:59:55;;;;;;;;;;;3.40;99.90;4.00;100789.00;;;;342980;28;83565;-94
2022/01/20 01:00:08;;;;;;;;;;;3.40;99.90;3.90;100782.00;;;;343062;28;83190;-94
2022/01/20 01:00:23;;;;;;;;;;;3.40;99.90;3.90;100787.00;;;;342751;28;85985;-93
2022/01/20 01:00:35;;;;;;;;;;;3.40;99.90;3.90;100796.00;;;;344444;28;83750;-94
2022/01/20 01:00:47;;;;;;;;;;;3.40;99.90;3.90;100789.00;;;;345123;28;87907;-94
2022/01/20 01:00:59;;;;;;;;;;;3.40;99.90;3.90;100793.00;;;;345733;28;83423;-94
2022/01/20 01:01:11;;;;;;;;;;;3.40;99.90;3.90;100785.00;;;;345701;28;86124;-94
2022/01/20 01:01:24;;;;;;;;;;;3.40;99.90;3.90;100782.00;;;;344288;28;83521;-95
2022/01/20 01:01:36;;;;;;;;;;;3.40;99.90;3.90;100791.00;;;;344248;28;85182;-94
2022/01/20 01:01:48;;;;;;;;;;;3.40;99.90;3.90;100792.00;;;;343519;28;83514;-94
2022/01/20 01:02:01;;;;;;;;;;;3.40;99.90;3.90;100781.00;;;;344339;28;85717;-94
2022/01/20 01:02:13;;;;;;;;;;;3.40;99.90;3.90;100788.00;;;;341724;28;82463;-93
2022/01/20 01:02:25;;;;;;;;;;;3.40;99.90;3.90;100790.00;;;;342877;28;87797;-94
2022/01/20 01:02:38;;;;;;;;;;;3.40;99.90;3.90;100785.00;;;;342919;28;83355;-94
2022/01/20 01:02:49;;;;;;;;;;;3.40;99.90;4.00;100781.00;;;;342737;28;86308;-93
2022/01/20 01:03:01;;;;;;;;;;;3.40;99.90;4.10;100781.00;;;;344334;28;83309;-95
2022/01/20 01:03:13;;;;;;;;;;;3.40;99.90;4.20;100785.00;;;;344344;28;86911;-94
2022/01/20 01:03:25;;;;;;;;;;;3.40;99.90;4.20;100784.00;;;;344421;28;84127;-94
2022/01/20 01:03:37;;;;;;;;;;;3.40;99.90;4.20;100788.00;;;;343058;28;86118;-94
2022/01/20 01:03:49;;;;;;;;;;;3.40;99.90;4.20;100781.00;;;;345568;28;82634;-93
2022/01/20 01:04:02;;;;;;;;;;;3.40;99.90;4.10;100790.00;;;;344389;28;86509;-94
2022/01/20 01:04:14;;;;;;;;;;;3.40;99.90;4.10;100786.00;;;;341470;28;83047;-94
2022/01/20 01:04:27;;;;;;;;;;;3.50;99.90;4.00;100788.00;;;;343070;28;87836;-93
2022/01/20 01:04:39;;;;;;;;;;;3.50;99.90;4.00;100780.00;;;;341662;28;83214;-94
2022/01/20 01:04:51;;;;;;;;;;;3.50;99.90;4.00;100785.00;;;;345681;28;87116;-93
2022/01/20 01:05:04;;;;;;;;;;;3.40;99.90;4.00;100792.00;;;;342983;28;82406;-95
2022/01/20 01:05:15;;;;;;;;;;;3.40;99.90;4.00;100785.00;;;;342751;28;87346;-94
2022/01/20 01:05:27;;;;;;;;;;;3.40;99.90;4.10;100785.00;;;;344418;28;83411;-94
2022/01/20 01:05:52;;;;;;;;;;;3.40;99.90;4.10;100782.00;;;;344345;28;87152;-94
2022/01/20 01:06:54;;;;;;;;;;;3.50;99.90;4.00;100794.00;;;;345555;28;88104;-94
2022/01/20 01:07:22;;;;;;;;;;;3.50;99.90;4.00;100780.00;;;;345490;28;87690;-93
2022/01/20 01:07:51;;;;;;;;;;;3.40;99.90;4.00;100791.00;;;;342944;28;83504;-94
2022/01/20 01:08:06;;;;;;;;;;;3.40;99.90;3.90;100784.00;;;;344329;28;88008;-94
2022/01/20 01:08:17;;;;;;;;;;;3.40;99.90;3.90;100784.00;;;;343095;28;83379;-94
2022/01/20 01:08:29;;;;;;;;;;;3.40;99.90;3.90;100783.00;;;;344193;28;85511;-93
2022/01/20 01:08:41;;;;;;;;;;;3.40;99.90;3.90;100786.00;;;;344587;28;82444;-94
2022/01/20 01:08:53;;;;;;;;;;;3.40;99.90;3.90;100789.00;;;;342738;28;86219;-94
2022/01/20 01:09:06;;;;;;;;;;;3.40;99.90;3.90;100783.00;;;;343113;28;82485;-94
2022/01/20 01:09:18;;;;;;;;;;;3.40;99.90;3.90;100790.00;;;;346962;28;88156;-94
2022/01/20 01:09:30;;;;;;;;;;;3.40;99.90;3.90;100783.00;;;;345054;28;82359;-94
2022/01/20 01:09:44;;;;;;;;;;;3.40;99.90;4.00;100772.00;;;;345564;28;86179;-94
2022/01/20 01:09:55;;;;;;;;;;;3.40;99.90;3.90;100788.00;;;;344349;28;82525;-94
2022/01/20 01:10:09;;;;;;;;;;;3.40;99.90;3.90;100778.00;;;;342980;28;86783;-94
2022/01/20 01:10:23;;;;;;;;;;;3.40;99.90;3.90;100777.00;;;;342982;28;82457;-94
2022/01/20 01:10:38;;;;;;;;;;;3.40;99.90;4.00;100780.00;;;;345652;28;87961;-94
2022/01/20 01:10:50;;;;;;;;;;;3.40;99.90;4.00;100781.00;;;;341673;28;83432;-95
2022/01/20 01:11:02;;;;;;;;;;;3.40;99.90;4.00;100786.00;;;;342786;28;87320;-94
2022/01/20 01:11:14;;;;;;;;;;;3.40;99.90;4.00;100782.00;;;;344364;28;83434;-94
2022/01/20 01:11:26;;;;;;;;;;;3.40;99.90;4.10;100785.00;;;;344252;28;87307;-94
2022/01/20 01:11:39;;;;;;;;;;;3.40;99.90;4.10;100781.00;;;;342865;28;83354;-94
2022/01/20 01:11:55;;;;;;;;;;;3.40;99.90;4.00;100779.00;;;;345551;28;87420;-94
2022/01/20 01:12:11;;;;;;;;;;;3.40;99.90;4.10;100786.00;;;;343464;28;82346;-94
2022/01/20 01:12:38;;;;;;;;;;;3.40;99.90;4.20;100782.00;;;;342858;28;86849;-95
2022/01/20 01:12:55;;;;;;;;;;;3.50;99.90;4.20;100790.00;;;;344350;28;82521;-94
2022/01/20 01:13:12;;;;;;;;;;;3.50;99.90;4.10;100784.00;;;;344370;28;87626;-94
2022/01/20 01:13:26;;;;;;;;;;;3.50;99.90;4.10;100788.00;;;;344406;28;82498;-94
2022/01/20 01:13:38;;;;;;;;;;;3.50;99.90;4.10;100782.00;;;;344355;28;86009;-94
2022/01/20 01:13:51;;;;;;;;;;;3.50;99.90;4.10;100783.00;;;;344451;28;82490;-94
2022/01/20 01:14:04;;;;;;;;;;;3.50;99.90;4.10;100790.00;;;;344280;28;86384;-94
2022/01/20 01:14:18;;;;;;;;;;;3.50;99.90;4.20;100787.00;;;;345860;28;83307;-94
2022/01/20 01:14:32;;;;;;;;;;;3.50;99.90;4.20;100783.00;;;;344303;28;85372;-94
2022/01/20 01:14:48;;;;;;;;;;;3.50;99.90;4.20;100791.00;;;;342824;28;83446;-93
2022/01/20 01:15:02;;;;;;;;;;;3.50;99.90;4.20;100793.00;;;;344004;28;86753;-94
2022/01/20 01:15:27;;;;;;;;;;;3.50;99.90;4.20;100784.00;;;;342166;28;82513;-93
2022/01/20 01:15:44;;;;;;;;;;;3.50;99.90;4.20;100786.00;;;;342784;28;85375;-94
2022/01/20 01:15:56;;;;;;;;;;;3.50;99.90;4.20;100784.00;;;;340362;28;82541;-94
2022/01/20 01:16:10;;;;;;;;;;;3.60;99.90;4.20;100787.00;;;;340432;28;86273;-94
2022/01/20 01:16:33;;;;;;;;;;;3.50;99.90;4.20;100788.00;;;;341703;28;83110;-93
2022/01/20 01:20:08;;;;;;;;;;;3.60;99.90;4.20;100786.00;;;;343059;28;86481;-94
2022/01/20 01:20:22;;;;;;;;;;;3.60;99.90;4.20;100792.00;;;;344355;28;83355;-94
2022/01/20 01:21:06;;;;;;;;;;;3.60;99.90;4.20;100800.00;;;;341652;28;86794;-94
2022/01/20 01:21:30;;;;;;;;;;;3.60;99.90;4.10;100788.00;;;;342784;28;86582;-94
2022/01/20 01:21:44;;;;;;;;;;;3.60;99.90;4.10;100776.00;;;;344276;28;82562;-94
2022/01/20 01:22:29;;;;;;;;;;;3.60;99.90;4.10;100781.00;;;;346312;28;83328;-94
2022/01/20 01:22:41;;;;;;;;;;;3.60;99.90;4.10;100775.00;;;;345619;28;87563;-94
2022/01/20 01:22:53;;;;;;;;;;;3.50;99.90;4.00;100784.00;;;;343086;28;82461;-94
2022/01/20 01:23:05;;;;;;;;;;;3.60;99.90;4.00;100779.00;;;;341554;28;86118;-94
2022/01/20 01:23:16;;;;;;;;;;;3.60;99.90;4.00;100782.00;;;;344518;28;82338;-94
2022/01/20 01:23:40;;;;;;;;;;;3.60;99.90;4.00;100779.00;;;;344228;28;86620;-94
2022/01/20 01:23:52;;;;;;;;;;;3.50;99.90;4.00;100780.00;;;;344249;28;83536;-95
2022/01/20 01:24:05;;;;;;;;;;;3.50;99.90;3.90;100773.00;;;;345448;28;85397;-94
2022/01/20 01:24:17;;;;;;;;;;;3.50;99.90;4.00;100775.00;;;;342891;28;83468;-94
2022/01/20 01:24:30;;;;;;;;;;;3.50;99.90;4.10;100784.00;;;;342941;28;86335;-94
2022/01/20 01:24:43;;;;;;;;;;;3.50;99.90;4.00;100771.00;;;;343685;28;83460;-93
2022/01/20 01:24:55;;;;;;;;;;;3.50;99.90;3.90;100775.00;;;;344911;28;86366;-94
2022/01/20 01:25:08;;;;;;;;;;;3.50;99.90;3.90;100775.00;;;;341713;28;82403;-94
2022/01/20 01:25:20;;;;;;;;;;;3.50;99.90;3.90;100779.00;;;;344406;28;86492;-94
2022/01/20 01:25:32;;;;;;;;;;;3.50;99.90;3.90;100777.00;;;;344391;28;82387;-94
2022/01/20 01:25:44;;;;;;;;;;;3.50;99.90;3.90;100778.00;;;;344040;28;85334;-93
2022/01/20 01:25:56;;;;;;;;;;;3.50;99.90;3.90;100778.00;;;;344462;28;83395;-94
2022/01/20 01:26:13;;;;;;;;;;;3.50;99.90;3.90;100767.00;;;;345739;28;87275;-93
2022/01/20 01:26:27;;;;;;;;;;;3.50;99.90;4.00;100780.00;;;;344350;28;83526;-94
2022/01/20 01:26:39;;;;;;;;;;;3.50;99.90;3.90;100776.00;;;;343982;28;86141;-93
2022/01/20 01:26:51;;;;;;;;;;;3.50;99.90;3.90;100774.00;;;;344218;28;83523;-94
2022/01/20 01:27:04;;;;;;;;;;;3.40;99.90;3.80;100779.00;;;;344344;28;86495;-94
2022/01/20 01:27:16;;;;;;;;;;;3.50;99.90;3.90;100769.00;;;;343053;28;82431;-94
2022/01/20 01:27:33;;;;;;;;;;;3.40;99.90;3.90;100769.00;;;;343542;28;85579;-94
2022/01/20 01:27:49;;;;;;;;;;;3.40;99.90;3.90;100777.00;;;;342860;28;83588;-94
2022/01/20 01:28:01;;;;;;;;;;;3.40;99.90;3.90;100779.00;;;;343094;28;83828;-94
2022/01/20 01:28:13;;;;;;;;;;;3.40;99.90;3.80;100778.00;;;;342930;28;83326;-94
2022/01/20 01:28:27;;;;;;;;;;;3.40;99.90;3.90;100774.00;;;;344054;28;88178;-94
2022/01/20 01:28:40;;;;;;;;;;;3.40;99.90;3.90;100772.00;;;;341782;28;83435;-93
2022/01/20 01:28:52;;;;;;;;;;;3.40;99.90;3.90;100771.00;;;;341627;28;85747;-94
2022/01/20 01:29:17;;;;;;;;;;;3.40;99.90;3.80;100781.00;;;;344593;28;82457;-94
2022/01/20 01:30:08;;;;;;;;;;;3.40;99.90;3.80;100780.00;;;;346975;28;83389;-94
2022/01/20 01:30:41;;;;;;;;;;;3.40;99.90;3.80;100775.00;;;;345683;28;86631;-94
2022/01/20 01:31:34;;;;;;;;;;;3.40;99.90;3.80;100774.00;;;;342905;28;87493;-94
2022/01/20 01:31:46;;;;;;;;;;;3.40;99.90;3.90;100781.00;;;;344176;28;83393;-93
2022/01/20 01:31:58;;;;;;;;;;;3.40;99.90;3.90;100780.00;;;;344411;28;86087;-93
2022/01/20 01:32:13;;;;;;;;;;;3.40;99.90;3.90;100778.00;;;;343127;28;82549;-93
2022/01/20 01:32:40;;;;;;;;;;;3.40;99.90;3.90;100784.00;;;;344501;28;86482;-93
2022/01/20 01:32:54;;;;;;;;;;;3.40;99.90;3.80;100790.00;;;;341694;28;83316;-95
2022/01/20 01:33:07;;;;;;;;;;;3.30;99.90;3.80;100786.00;;;;343220;28;86691;-93
2022/01/20 01:33:19;;;;;;;;;;;3.30;99.90;3.80;100779.00;;;;343241;28;82528;-94
2022/01/20 01:33:35;;;;;;;;;;;3.30;99.90;3.80;100781.00;;;;344544;28;86292;-94
2022/01/20 01:33:52;;;;;;;;;;;3.30;99.90;3.80;100786.00;;;;345953;28;83532;-94
2022/01/20 01:34:11;;;;;;;;;;;3.30;99.90;3.80;100779.00;;;;343005;28;86754;-94
2022/01/20 01:34:27;;;;;;;;;;;3.30;99.90;3.90;100778.00;;;;345958;28;82539;-93
2022/01/20 01:34:42;;;;;;;;;;;3.30;99.90;3.90;100785.00;;;;343222;28;86441;-93
2022/01/20 01:34:54;;;;;;;;;;;3.30;99.90;3.80;100788.00;;;;344669;28;83425;-94
2022/01/20 01:35:09;;;;;;;;;;;3.30;99.90;3.80;100789.00;;;;344903;28;86716;-93
2022/01/20 01:35:22;;;;;;;;;;;3.30;99.90;3.80;100789.00;;;;343378;28;82555;-94
2022/01/20 01:35:38;;;;;;;;;;;3.30;99.90;3.90;100797.00;;;;343179;28;86748;-94
2022/01/20 01:35:56;;;;;;;;;;;3.30;99.90;3.80;100791.00;;;;342839;28;83559;-94
2022/01/20 01:36:12;;;;;;;;;;;3.30;99.90;3.90;100790.00;;;;343092;28;88178;-94
2022/01/20 01:36:25;;;;;;;;;;;3.30;99.90;3.90;100798.00;;;;344432;28;82533;-94
2022/01/20 01:37:25;;;;;;;;;;;3.30;99.90;3.80;100790.00;;;;343296;28;82527;-95
2022/01/20 01:38:25;;;;;;;;;;;3.30;99.90;3.80;100789.00;;;;343171;28;86429;-94
2022/01/20 01:38:36;;;;;;;;;;;3.30;99.90;3.80;100792.00;;;;344465;28;87272;-94
2022/01/20 01:38:48;;;;;;;;;;;3.30;99.90;3.80;100792.00;;;;344416;28;83391;-94
2022/01/20 01:39:00;;;;;;;;;;;3.30;99.90;3.80;100792.00;;;;345473;28;85271;-93
2022/01/20 01:39:12;;;;;;;;;;;3.30;99.90;3.90;100795.00;;;;344320;28;83361;-94
2022/01/20 01:39:24;;;;;;;;;;;3.30;99.90;3.80;100791.00;;;;344265;28;86746;-93
2022/01/20 01:39:36;;;;;;;;;;;3.30;99.90;3.90;100791.00;;;;343110;28;82373;-94
2022/01/20 01:40:10;;;;;;;;;;;3.30;99.90;3.80;100788.00;;;;342744;28;87654;-94
2022/01/20 01:40:26;;;;;;;;;;;3.30;99.90;3.90;100794.00;;;;343445;28;82560;-94
2022/01/20 01:40:40;;;;;;;;;;;3.30;99.90;3.90;100780.00;;;;344304;28;87394;-93
2022/01/20 01:40:52;;;;;;;;;;;3.30;99.90;3.90;100784.00;;;;342987;28;83128;-94
2022/01/20 01:41:13;;;;;;;;;;;3.30;99.90;3.90;100781.00;;;;344293;28;86437;-94
2022/01/20 01:41:36;;;;;;;;;;;3.30;99.90;3.90;100787.00;;;;344106;28;83321;-94
2022/01/20 01:41:48;;;;;;;;;;;3.30;99.90;3.90;100784.00;;;;344005;28;86005;-94
2022/01/20 01:42:00;;;;;;;;;;;3.30;99.90;3.90;100782.00;;;;342997;28;82672;-94
2022/01/20 01:42:12;;;;;;;;;;;3.30;99.90;3.80;100788.00;;;;342838;28;86093;-94
2022/01/20 01:42:31;;;;;;;;;;;3.30;99.90;3.90;100784.00;;;;342847;28;83563;-94
2022/01/20 01:42:49;;;;;;;;;;;3.30;99.90;3.90;100790.00;;;;345612;28;87415;-93
2022/01/20 01:43:11;;;;;;;;;;;3.30;99.90;3.90;100779.00;;;;344091;28;83550;-94
2022/01/20 01:43:26;;;;;;;;;;;3.30;99.90;3.90;100779.00;;;;344188;28;86926;-94
2022/01/20 01:43:40;;;;;;;;;;;3.30;99.90;3.90;100774.00;;;;345753;28;83378;-94
2022/01/20 01:43:53;;;;;;;;;;;3.30;99.90;3.90;100781.00;;;;344060;28;85730;-94
2022/01/20 01:44:08;;;;;;;;;;;3.30;99.90;3.90;100777.00;;;;343019;28;82505;-94